Bon Secour, Alabama
Current Conditions -  °F | °C
As of 10:15 PM on Wednesday 22 Oct 2014 (Local Time) from KJKA Reporting Station
Clear Clear  
Wind Chill: 59°   Ceiling: Unl
Heat Index: 59°   Visibility: 10mi
Dew Point: 47°   Wind: 5mph
Humidity: 65%   Direction: 20°NNE
Pressure: 30.09"   Gusts: NA
Location:  30.32°N, 87.73°W
Report Text: KJKA 230315Z AUTO 02004KT 10SM CLR 15/09 A3009 RMK AO2 T01500085
Loading
Personal Weather Stations






























Interactive Weather Map
Tropical Storm Tracking
New forecast layout! Learn more

10-Day Weather Forecast

Advertisements
Track Severe Weather on mobile